Station: Mullion  

  Atmospheric Gas Attenuation - ITU Rec 676-11   ----------------- dB/100km -----------------
Date Time Temp RH % AH g/m3 Dew Point Wind Direction Speed kph Gust kph Barometer mB Rainfall Since 9am 24GHz 47GHz 76GHz 122GHz 134GHz 241GHz
02/09 19:30 14.3 77 9.46 10.4 20 24 1013.1 0 21.4 27.1 43.0 113.1 109.2 376.4
02/09 19:20 14.3 77 9.46 10.3 20 22 1013.1 0 21.4 27.1 43.0 113.1 109.2 376.4
02/09 19:10 14.4 77 9.52 10.4 22 26 1013.1 0 21.5 27.2 43.2 113.6 109.9 378.8
02/09 18:50 14.5 75 9.33 10.1 26 32 1013.1 0 21.1 26.9 42.4 111.4 107.2 369.3
02/09 18:40 14.7 74 9.32 10.1 28 32 1013.1 0 21.1 26.8 42.2 111.0 106.8 367.9
02/09 18:30 14.7 74 9.32 10.1 24 30 1013.1 0 21.1 26.8 42.2 111.0 106.8 367.9
02/09 18:20 14.8 73 9.25 10.1 24 26 1013.1 0 20.9 26.6 41.9 110.1 105.7 364.2
02/09 18:10 15 71 9.1 9.9 28 33 1013.1 0 20.6 26.3 41.2 108.2 103.4 356.3
02/09 18:00 15 71 9.1 9.9 30 33 1013.1 0 20.6 26.3 41.2 108.2 103.4 356.3
02/09 17:50 15 70 8.98 9.7 28 30 1013.1 0 20.3 26.2 40.7 106.9 101.9 350.7
02/09 17:40 15.2 69 8.96 9.7 28 30 1013.1 0 20.3 26.1 40.5 106.4 101.3 348.9
02/09 17:30 15.7 66 8.83 9.4 32 37 1013.1 0 20.0 25.7 39.8 104.4 99.0 340.8
02/09 17:20 16 64 8.72 9.3 39 48 1013.1 0 19.7 25.4 39.2 102.8 97.2 334.5
02/09 17:10 15.9 65 8.8 9.3 30 35 1013.1 0 19.9 25.6 39.5 103.8 98.3 338.6
02/09 17:00 16.1 64 8.77 9.3 35 39 1013.1 0 19.8 25.5 39.3 103.2 97.7 336.4
02/09 16:50 16.2 63 8.69 9.1 37 41 1013.1 0 19.7 25.3 39.0 102.2 96.6 332.4
02/09 16:40 16.4 63 8.79 9.5 32 35 1013.1 0 19.9 25.4 39.3 103.0 97.6 336.0
02/09 16:30 16.4 63 8.79 9.3 35 44 1013.1 0 19.9 25.4 39.3 103.0 97.6 336.0
02/09 16:20 16.7 62 8.81 9.4 33 41 1013.1 0 19.9 25.4 39.2 102.8 97.5 335.6
02/09 16:10 16.8 60 8.58 9.1 35 41 1013.1 0 19.4 25.0 38.2 100.3 94.4 325.0
02/09 15:50 17.1 59 8.59 9 33 39 1013.1 0 19.4 24.9 38.1 100.1 94.2 324.2
02/09 15:40 16.6 60 8.48 8.8 32 39 1013.1 0 19.2 24.9 38.0 99.6 93.4 321.3
02/09 15:30 16.6 61 8.62 9 35 41 1013.1 0 19.5 25.1 38.5 101.0 95.2 327.6
02/09 15:20 16.6 57 8.05 8.2 35 43 1013.1 0 18.3 24.2 36.3 95.2 88.0 302.4
02/09 15:10 16.9 55 7.91 7.9 41 46 1013.1 0 18.0 23.9 35.7 93.4 85.9 295.2
02/09 15:00 17.1 57 8.3 8.5 39 48 1013.1 0 18.8 24.5 37.0 97.1 90.5 311.4
02/09 14:50 17.1 55 8.01 8 48 54 1013.1 0 18.2 24.0 35.9 94.2 86.9 298.8
02/09 14:40 17.4 53 7.85 7.9 39 50 1013.1 0 17.8 23.7 35.2 92.3 84.7 290.8
02/09 14:30 17.3 54 7.95 8.1 44 54 1013.1 0 18.0 23.9 35.6 93.4 86.0 295.5
02/09 14:20 17 55 7.96 8 44 56 1013.1 0 18.1 24.0 35.8 93.8 86.4 297.0
02/09 14:10 16.8 56 8.01 8.1 44 52 1013.1 0 18.2 24.1 36.1 94.5 87.3 299.9
02/09 14:00 16.8 56 8.01 8 48 54 1013.1 0 18.2 24.1 36.1 94.5 87.3 299.9
02/09 13:50 17.2 54 7.91 7.9 50 59 1013.1 0 18.0 23.9 35.5 93.1 85.6 294.1
02/09 13:40 17.2 53 7.76 7.7 46 56 1013.1 0 17.6 23.6 35.0 91.6 83.8 287.7
02/09 13:30 17.4 55 8.15 8.4 33 41 1013.1 0 18.5 24.2 36.3 95.2 88.3 303.7
02/09 13:20 17.2 56 8.2 8.3 33 39 1013.1 0 18.6 24.3 36.6 96.0 89.2 306.7
02/09 13:10 16.5 57 8 8.1 39 43 1013.1 0 18.2 24.2 36.2 94.8 87.5 300.6
02/09 12:50 16.9 57 8.2 8.4 39 46 1013.1 0 18.6 24.4 36.7 96.3 89.5 307.8
02/09 12:40 16.8 57 8.15 8.4 39 50 1013.1 0 18.5 24.3 36.6 96.0 89.0 306.0
02/09 12:30 16.6 61 8.62 9 44 52 1013.1 0 19.5 25.1 38.5 101.0 95.2 327.6
02/09 12:20 16.5 57 8 8 50 57 1013.1 0 18.2 24.2 36.2 94.8 87.5 300.6
02/09 12:10 16.6 58 8.19 8.4 48 56 1013.1 0 18.6 24.5 36.8 96.6 89.7 308.5
02/09 12:00 16.7 62 8.81 9.4 41 46 1013.1 0 19.9 25.4 39.2 102.8 97.5 335.6
02/09 11:50 16.5 61 8.57 9.1 41 46 1013.1 0 19.4 25.1 38.3 100.6 94.7 325.7
02/09 11:40 16.5 63 8.85 9.5 37 41 1013.1 0 20.0 25.5 39.4 103.5 98.2 338.3
02/09 11:30 16.7 61 8.67 9.1 26 35 1013.1 0 19.6 25.2 38.6 101.4 95.7 329.4
02/09 11:20 16.4 63 8.79 9.4 26 32 1013.1 0 19.9 25.4 39.3 103.0 97.6 336.0
02/09 11:10 16 64 8.72 9.3 28 32 1013.1 0 19.7 25.4 39.2 102.8 97.2 334.5
02/09 11:00 15.7 63 8.43 8.7 30 35 1013.1 0 19.1 25.1 38.2 100.2 93.8 322.8
02/09 10:50 15.4 64 8.41 8.6 30 33 1013.1 0 19.1 25.1 38.3 100.4 93.9 323.1
02/09 10:40 15.4 67 8.8 9.4 24 28 1013.1 0 19.9 25.7 39.8 104.4 99.0 340.7
02/09 10:30 14.8 71 8.99 9.7 22 28 1013.1 0 20.4 26.2 40.8 107.3 102.2 352.1
02/09 10:20 14.7 69 8.69 9.2 20 24 1013.1 0 19.7 25.8 39.7 104.2 98.4 338.7
02/09 10:10 14.4 73 9.02 9.6 20 26 1013.1 0 20.5 26.4 41.2 108.1 103.2 355.3
02/09 10:00 14.2 72 8.79 9.3 22 28 1013.1 0 20.0 26.1 40.4 105.9 100.4 345.5
02/09 09:50 13.8 74 8.82 9.2 24 30 1013.1 0 20.1 26.2 40.7 106.8 101.3 348.7
02/09 09:40 13.3 77 8.9 9.3 26 32 1013.1 0 20.3 26.5 41.3 108.4 103.0 354.7
02/09 09:30 13 78 8.85 9.3 24 26 1013.1 0 20.2 26.5 41.2 108.2 102.8 353.7
02/09 09:20 12.5 81 8.91 9.4 24 26 1013.1 0 20.3 26.8 41.7 109.6 104.2 358.8
02/09 09:10 12.3 82 8.9 9.3 24 26 1013.1 0 20.3 26.8 41.8 109.7 104.4 359.2
02/09 09:00 12.1 81 8.69 8.9 22 26 1013.1 0.2 19.9 26.5 41.0 107.7 101.8 350.1
02/09 08:50 11.9 81 8.58 8.8 26 28 1013.1 0.2 19.6 26.4 40.7 106.8 100.6 345.8
02/09 08:40 11.8 81 8.53 8.7 24 26 1013.1 0.2 19.5 26.4 40.5 106.4 100.0 343.9
02/09 08:30 11.7 81 8.47 8.5 22 24 1013.1 0.2 19.4 26.3 40.3 105.8 99.3 341.5
02/09 08:20 11.7 81 8.47 8.5 20 22 1013.1 0.2 19.4 26.3 40.3 105.8 99.3 341.5
02/09 08:10 11.5 80 8.26 8.2 20 24 1013.1 0.2 19.0 26.0 39.6 103.8 96.8 332.4
02/09 08:00 11.3 81 8.26 8.2 20 22 1013.1 0.2 19.0 26.1 39.7 104.1 97.0 333.3
02/09 07:50 11.1 83 8.36 8.3 19 19 1013.1 0.2 19.2 26.3 40.2 105.4 98.6 338.9
02/09 07:40 10.8 84 8.3 8.3 19 19 1013.1 0.2 19.1 26.3 40.1 105.2 98.2 337.3
02/09 07:30 10.8 84 8.3 8.3 19 20 1013.1 0.2 19.1 26.3 40.1 105.2 98.2 337.3
02/09 07:20 10.9 84 8.36 8.3 17 19 1013.1 0.2 19.2 26.3 40.3 105.7 98.9 339.7
02/09 07:10 10.9 84 8.36 8.4 17 19 1013.1 0.2 19.2 26.3 40.3 105.7 98.9 339.7
02/09 07:00 10.9 100 9.95 10.9 19 20 1013.1 0.2 22.6 29.1 47.1 123.8 121.2 417.8
02/09 06:50 10.9 100 9.95 10.9 20 20 1013.1 0.2 22.6 29.1 47.1 123.8 121.2 417.8
02/09 06:40 10.8 100 9.89 10.8 20 22 1013.1 0.2 22.5 29.0 46.9 123.3 120.5 415.3
02/09 06:30 10.4 100 9.64 10.4 19 19 1013.1 0.2 22.0 28.7 46.0 121.0 117.5 404.8
02/09 06:20 10.2 100 9.52 10.2 17 17 1013.1 0.2 21.8 28.6 45.6 119.9 116.1 399.9
02/09 06:10 10.1 100 9.46 10.1 17 19 1013.1 0.2 21.6 28.5 45.4 119.4 115.4 397.4
02/09 06:00 10.1 100 9.46 10.1 22 24 1013.1 0.2 21.6 28.5 45.4 119.4 115.4 397.4
02/09 05:50 10.1 100 9.46 10.1 24 26 1013.1 0.2 21.6 28.5 45.4 119.4 115.4 397.4
02/09 05:40 10.5 90 8.73 9 26 28 1013.1 0.2 20.0 27.1 42.0 110.4 104.5 359.4
02/09 05:30 10.6 88 8.59 8.7 26 28 1013.1 0.2 19.7 26.8 41.4 108.7 102.4 352.1
02/09 05:20 10.6 88 8.59 8.7 24 26 1013.1 0.2 19.7 26.8 41.4 108.7 102.4 352.1
02/09 05:10 10.6 89 8.69 8.8 22 24 1013.1 0.2 19.9 27.0 41.8 109.8 103.8 357.0
02/09 05:00 11 86 8.61 8.7 26 26 1013.1 0.2 19.7 26.7 41.3 108.3 102.2 351.3
02/09 04:50 11 86 8.61 8.7 28 32 1013.1 0.2 19.7 26.7 41.3 108.3 102.2 351.3
02/09 04:40 11.1 84 8.46 8.5 32 33 1013.1 0.2 19.4 26.5 40.6 106.5 100.0 343.6
02/09 04:30 11 86 8.61 8.8 28 33 1013.1 0.2 19.7 26.7 41.3 108.3 102.2 351.3
02/09 04:20 11.5 83 8.57 8.7 32 35 1013.1 0.2 19.6 26.5 40.8 107.2 101.0 347.1
02/09 04:00 11.9 77 8.16 8.1 37 43 1013.1 0.2 18.7 25.7 39.0 102.2 94.9 326.1
02/09 03:50 11.7 79 8.26 8.3 43 44 1013.1 0.2 19.0 25.9 39.5 103.5 96.5 331.6
02/09 03:40 11.3 83 8.47 8.5 41 43 1013.1 0.2 19.4 26.4 40.5 106.4 99.8 343.2
02/09 03:30 11.2 84 8.52 8.6 35 43 1013.1 0.2 19.5 26.5 40.8 107.1 100.7 346.1
02/09 03:20 11.2 85 8.62 8.8 32 35 1013.1 0.2 19.8 26.7 41.2 108.2 102.0 350.9
02/09 03:10 11.4 84 8.62 8.8 28 33 1013.1 0.2 19.7 26.6 41.1 107.9 101.8 350.0
02/09 03:00 11.5 83 8.57 8.8 35 43 1013.1 0.2 19.6 26.5 40.8 107.2 101.0 347.1
02/09 02:50 11.6 82 8.52 8.7 39 44 1013.1 0.2 19.5 26.4 40.6 106.5 100.1 344.3
02/09 02:40 11.6 82 8.52 8.7 43 54 1013.1 0.2 19.5 26.4 40.6 106.5 100.1 344.3
02/09 02:30 12 79 8.42 8.5 35 46 1013.1 0 19.3 26.1 40.0 104.9 98.3 337.8
02/09 02:20 12.2 74 7.99 7.8 30 35 1013.1 0 18.4 25.4 38.1 100.0 92.3 316.9

Last Refresh: 02-Sep-2026 19:15:27

Bureau of Meteorology